createdAt,value
2022-09-03T00:00:49.454Z,101566.00
2022-09-03T00:03:31.593Z,101576.00
2022-09-03T00:06:13.890Z,101568.00
2022-09-03T00:08:50.891Z,101576.00
2022-09-03T00:11:25.994Z,101560.00
2022-09-03T00:14:04.791Z,101570.00
2022-09-03T00:17:00.841Z,101566.00
2022-09-03T00:19:33.671Z,101566.00
2022-09-03T00:22:13.704Z,101557.00
2022-09-03T00:24:42.154Z,101558.00
2022-09-03T00:27:15.521Z,101566.00
2022-09-03T00:29:50.939Z,101564.00
2022-09-03T00:32:47.163Z,101558.00
2022-09-03T00:35:31.484Z,101556.00
2022-09-03T00:37:59.926Z,101550.00
2022-09-03T00:40:32.771Z,101559.00
2022-09-03T00:43:18.699Z,101557.00
2022-09-03T00:46:07.313Z,101557.00
2022-09-03T00:48:57.858Z,101552.00
2022-09-03T00:51:33.536Z,101555.00
2022-09-03T00:54:08.977Z,101562.00
2022-09-03T00:56:56.991Z,101557.00
2022-09-03T00:59:38.688Z,101557.00
2022-09-03T01:02:16.053Z,101558.00
2022-09-03T01:04:52.056Z,101555.00
2022-09-03T01:07:33.041Z,101557.00
2022-09-03T01:10:26.161Z,101549.00
2022-09-03T01:13:00.423Z,101548.00
2022-09-03T01:15:45.285Z,101544.00
2022-09-03T01:18:19.052Z,101543.00
2022-09-03T01:21:05.872Z,101542.00
2022-09-03T01:23:48.739Z,101545.00
2022-09-03T01:26:22.893Z,101546.00
2022-09-03T01:29:12.637Z,101551.00
2022-09-03T01:31:58.062Z,101548.00
2022-09-03T01:34:30.764Z,101548.00
2022-09-03T01:37:10.199Z,101544.00
2022-09-03T01:39:55.916Z,101549.00
2022-09-03T01:42:35.504Z,101554.00
2022-09-03T01:45:22.579Z,101543.00
2022-09-03T01:48:13.033Z,101550.00
2022-09-03T01:50:43.179Z,101541.00
2022-09-03T01:53:16.196Z,101541.00
2022-09-03T01:56:21.509Z,101535.00
2022-09-03T01:59:07.056Z,101539.00
2022-09-03T02:01:46.646Z,101530.00
2022-09-03T02:04:20.110Z,101523.00
2022-09-03T02:06:48.956Z,101528.00
2022-09-03T02:09:17.326Z,101527.00
2022-09-03T02:11:46.895Z,101538.00
2022-09-03T02:14:13.888Z,101521.00
2022-09-03T02:16:40.793Z,101537.00
2022-09-03T02:19:11.429Z,101534.00
2022-09-03T02:21:40.322Z,101531.00
2022-09-03T02:24:08.685Z,101519.00
2022-09-03T02:26:36.268Z,101524.00
2022-09-03T02:29:03.899Z,101521.00
2022-09-03T02:31:31.028Z,101519.00
2022-09-03T02:33:58.243Z,101519.00
2022-09-03T02:36:28.490Z,101512.00
2022-09-03T02:38:55.546Z,101513.00
2022-09-03T02:41:24.131Z,101498.00
2022-09-03T02:44:01.569Z,101510.00
2022-09-03T02:46:51.988Z,101501.00
2022-09-03T02:49:18.972Z,101502.00
2022-09-03T02:51:45.840Z,101502.00
2022-09-03T02:54:16.746Z,101497.00
2022-09-03T02:56:48.360Z,101497.00
2022-09-03T02:59:18.065Z,101493.00
2022-09-03T03:01:46.602Z,101496.00
2022-09-03T03:04:14.048Z,101492.00
2022-09-03T03:06:40.977Z,101499.00
2022-09-03T03:09:08.559Z,101494.00
2022-09-03T03:11:37.049Z,101500.00
2022-09-03T03:14:04.136Z,101499.00
2022-09-03T03:16:31.140Z,101494.00
2022-09-03T03:18:58.358Z,101503.00
2022-09-03T03:21:25.206Z,101496.00
2022-09-03T03:23:52.369Z,101494.00
2022-09-03T03:26:20.692Z,101504.00
2022-09-03T03:28:49.022Z,101494.00
2022-09-03T03:31:18.889Z,101499.00
2022-09-03T03:33:51.185Z,101499.00
2022-09-03T03:36:18.092Z,101486.00
2022-09-03T03:38:45.353Z,101496.00
2022-09-03T03:41:19.119Z,101490.00
2022-09-03T03:43:45.967Z,101486.00
2022-09-03T03:46:12.875Z,101492.00
2022-09-03T03:48:39.768Z,101496.00
2022-09-03T03:51:09.108Z,101491.00
2022-09-03T03:53:37.473Z,101495.00
2022-09-03T03:56:07.093Z,101494.00
2022-09-03T03:58:34.634Z,101501.00
2022-09-03T04:01:22.381Z,101493.00
2022-09-03T04:03:49.836Z,101504.00
2022-09-03T04:06:19.295Z,101493.00
2022-09-03T04:08:49.704Z,101504.00
2022-09-03T04:11:19.918Z,101508.00
2022-09-03T04:13:47.825Z,101502.00
2022-09-03T04:16:20.201Z,101510.00
2022-09-03T04:18:49.050Z,101505.00
2022-09-03T04:21:21.705Z,101502.00
2022-09-03T04:23:49.997Z,101511.00
2022-09-03T04:26:19.648Z,101506.00
2022-09-03T04:28:46.890Z,101509.00
2022-09-03T04:31:16.593Z,101510.00
2022-09-03T04:33:43.882Z,101510.00
2022-09-03T04:36:16.939Z,101508.00
2022-09-03T04:38:45.155Z,101520.00
2022-09-03T04:41:14.048Z,101512.00
2022-09-03T04:43:43.372Z,101510.00
2022-09-03T04:46:17.671Z,101505.00
2022-09-03T04:48:48.609Z,101510.00
2022-09-03T04:51:17.777Z,101507.00
2022-09-03T04:53:46.468Z,101512.00
2022-09-03T04:56:15.075Z,101503.00
2022-09-03T04:58:44.226Z,101513.00
2022-09-03T05:01:13.159Z,101502.00
2022-09-03T05:03:40.138Z,101509.00
2022-09-03T05:06:08.713Z,101511.00
2022-09-03T05:08:36.864Z,101513.00
2022-09-03T05:11:07.893Z,101514.00
2022-09-03T05:13:36.963Z,101516.00
2022-09-03T05:16:09.707Z,101521.00
2022-09-03T05:18:37.051Z,101511.00
2022-09-03T05:21:06.634Z,101516.00
2022-09-03T05:23:37.915Z,101526.00
2022-09-03T05:26:10.980Z,101525.00
2022-09-03T05:28:40.525Z,101524.00
2022-09-03T05:31:28.229Z,101525.00
2022-09-03T05:34:00.481Z,101521.00
2022-09-03T05:36:29.868Z,101522.00
2022-09-03T05:38:58.443Z,101530.00
2022-09-03T05:41:26.741Z,101531.00
2022-09-03T05:43:58.925Z,101520.00
2022-09-03T05:46:39.947Z,101521.00
2022-09-03T05:49:07.958Z,101515.00
2022-09-03T05:51:36.437Z,101523.00
2022-09-03T05:54:03.917Z,101509.00
2022-09-03T05:56:36.848Z,101534.00
2022-09-03T05:59:09.293Z,101527.00
2022-09-03T06:01:41.250Z,101524.00
2022-09-03T06:04:14.761Z,101526.00
2022-09-03T06:06:43.541Z,101521.00
2022-09-03T06:09:23.288Z,101533.00
2022-09-03T06:11:50.845Z,101525.00
2022-09-03T06:14:20.204Z,101536.00
2022-09-03T06:16:52.777Z,101538.00
2022-09-03T06:19:20.205Z,101551.00
2022-09-03T06:21:47.441Z,101545.00
2022-09-03T06:24:26.336Z,101548.00
2022-09-03T06:26:54.734Z,101558.00
2022-09-03T06:29:21.992Z,101564.00
2022-09-03T06:31:48.957Z,101564.00
2022-09-03T06:34:18.580Z,101578.00
2022-09-03T06:36:46.174Z,101592.00
2022-09-03T06:39:13.150Z,101595.00
2022-09-03T06:41:40.157Z,101594.00
2022-09-03T06:44:11.650Z,101596.00
2022-09-03T06:46:42.318Z,101604.00
2022-09-03T06:49:10.017Z,101586.00
2022-09-03T06:51:38.013Z,101609.00
2022-09-03T06:54:09.389Z,101607.00
2022-09-03T06:56:40.649Z,101593.00
2022-09-03T06:59:12.669Z,101585.00
2022-09-03T07:01:44.058Z,101619.00
2022-09-03T07:04:12.650Z,101623.00
2022-09-03T07:06:40.901Z,101622.00
2022-09-03T07:09:08.431Z,101613.00
2022-09-03T07:11:36.483Z,101633.00
2022-09-03T07:14:05.386Z,101648.00
2022-09-03T07:16:37.082Z,101649.00
2022-09-03T07:19:05.428Z,101655.00
2022-09-03T07:21:34.232Z,101655.00
2022-09-03T07:24:02.422Z,101664.00
2022-09-03T07:26:31.033Z,101657.00
2022-09-03T07:28:59.082Z,101667.00
2022-09-03T07:31:28.796Z,101653.00
2022-09-03T07:34:06.044Z,101683.00
2022-09-03T07:36:46.867Z,101677.00
2022-09-03T07:39:16.446Z,101682.00
2022-09-03T07:41:45.816Z,101703.00
2022-09-03T07:44:15.381Z,101678.00
2022-09-03T07:46:43.543Z,101685.00
2022-09-03T07:49:19.902Z,101717.00
2022-09-03T07:51:50.527Z,101701.00
2022-09-03T07:54:17.386Z,101724.00
2022-09-03T07:56:44.322Z,101700.00
2022-09-03T07:59:12.057Z,101707.00
2022-09-03T08:01:41.303Z,101712.00
2022-09-03T08:04:09.814Z,101724.00
2022-09-03T08:06:37.632Z,101695.00
2022-09-03T08:09:07.509Z,101721.00
2022-09-03T08:11:38.159Z,101695.00
2022-09-03T08:14:10.046Z,101729.00
2022-09-03T08:16:39.605Z,101728.00
2022-09-03T08:19:09.732Z,101715.00
2022-09-03T08:21:37.028Z,101718.00
2022-09-03T08:24:04.297Z,101719.00
2022-09-03T08:26:39.515Z,101725.00
2022-09-03T08:29:06.901Z,101720.00
2022-09-03T08:31:34.971Z,101723.00
2022-09-03T08:34:07.128Z,101731.00
2022-09-03T08:36:37.017Z,101712.00
2022-09-03T08:39:10.050Z,101718.00
2022-09-03T08:41:56.995Z,101719.00
2022-09-03T08:44:56.787Z,101714.00
2022-09-03T08:47:34.825Z,101731.00
2022-09-03T08:50:19.377Z,101710.00
2022-09-03T08:52:50.069Z,101733.00
2022-09-03T08:55:26.379Z,101733.00
2022-09-03T08:58:14.243Z,101730.00
2022-09-03T09:00:55.817Z,101768.00
2022-09-03T09:03:50.353Z,101763.00
2022-09-03T09:06:48.390Z,101763.00
2022-09-03T09:09:35.447Z,101769.00
2022-09-03T09:12:18.199Z,101763.00
2022-09-03T09:15:10.766Z,101759.00
2022-09-03T09:17:54.747Z,101758.00
2022-09-03T09:20:29.727Z,101757.00
2022-09-03T09:23:06.580Z,101768.00
2022-09-03T09:25:50.600Z,101769.00
2022-09-03T09:28:18.855Z,101746.00
2022-09-03T09:30:49.410Z,101764.00
2022-09-03T09:33:17.227Z,101786.00
2022-09-03T09:35:44.997Z,101764.00
2022-09-03T09:38:12.372Z,101756.00
2022-09-03T09:40:45.076Z,101763.00
2022-09-03T09:43:14.034Z,101769.00
2022-09-03T09:45:45.689Z,101765.00
2022-09-03T09:48:34.961Z,101786.00
2022-09-03T09:51:20.025Z,101760.00
2022-09-03T09:53:47.000Z,101778.00
2022-09-03T09:56:27.842Z,101772.00
2022-09-03T09:59:09.993Z,101735.00
2022-09-03T10:01:46.729Z,101771.00
2022-09-03T10:04:27.775Z,101778.00
2022-09-03T10:07:03.356Z,101767.00
2022-09-03T10:09:32.878Z,101759.00
2022-09-03T10:12:24.563Z,101757.00
2022-09-03T10:15:08.142Z,101779.00
2022-09-03T10:17:47.195Z,101753.00
2022-09-03T10:20:27.676Z,101769.00
2022-09-03T10:22:57.533Z,101762.00
2022-09-03T10:25:56.167Z,101735.00
2022-09-03T10:28:31.347Z,101770.00
2022-09-03T10:31:30.223Z,101737.00
2022-09-03T10:34:17.665Z,101728.00
2022-09-03T10:37:12.302Z,101759.00
2022-09-03T10:39:54.509Z,101762.00
2022-09-03T10:42:49.225Z,101756.00
2022-09-03T10:45:37.778Z,101735.00
2022-09-03T10:48:31.809Z,101745.00
2022-09-03T10:51:25.101Z,101775.00
2022-09-03T10:53:55.091Z,101766.00
2022-09-03T10:56:27.562Z,101745.00
2022-09-03T10:59:28.605Z,101745.00
2022-09-03T11:02:35.323Z,101751.00
2022-09-03T11:05:07.760Z,101744.00
2022-09-03T11:08:00.959Z,101770.00
2022-09-03T11:10:35.770Z,101741.00
2022-09-03T11:13:26.524Z,101728.00
2022-09-03T11:16:01.590Z,101736.00
2022-09-03T11:18:50.337Z,101716.00
2022-09-03T11:21:22.064Z,101721.00
2022-09-03T11:23:55.256Z,101720.00
2022-09-03T11:26:30.619Z,101701.00
2022-09-03T11:29:26.769Z,101723.00
2022-09-03T11:32:11.829Z,101721.00
2022-09-03T11:34:46.472Z,101720.00
2022-09-03T11:37:25.294Z,101704.00
2022-09-03T11:39:56.981Z,101717.00
2022-09-03T11:42:30.676Z,101715.00
2022-09-03T11:45:33.207Z,101724.00
2022-09-03T11:48:00.096Z,101705.00
2022-09-03T11:50:29.341Z,101704.00
2022-09-03T11:53:14.362Z,101698.00
2022-09-03T11:55:50.599Z,101707.00
2022-09-03T11:58:30.376Z,101735.00
2022-09-03T12:01:30.249Z,101731.00
2022-09-03T12:04:04.726Z,101730.00
2022-09-03T12:07:07.126Z,101729.00
2022-09-03T12:09:43.758Z,101698.00
2022-09-03T12:12:45.706Z,101736.00
2022-09-03T12:15:50.125Z,101739.00
2022-09-03T12:18:29.567Z,101739.00
2022-09-03T12:20:56.387Z,101690.00
2022-09-03T12:23:29.150Z,101695.00
2022-09-03T12:25:56.496Z,101700.00
2022-09-03T12:28:24.981Z,101677.00
2022-09-03T12:30:53.741Z,101705.00
2022-09-03T12:33:22.540Z,101691.00
2022-09-03T12:36:00.695Z,101674.00
2022-09-03T12:38:29.907Z,101673.00
2022-09-03T12:43:51.708Z,101682.00
2022-09-03T12:46:26.661Z,101694.00
2022-09-03T12:52:06.199Z,101685.00
2022-09-03T12:54:36.715Z,101674.00
2022-09-03T12:57:04.167Z,101638.00
2022-09-03T12:59:34.757Z,101665.00
2022-09-03T13:02:12.901Z,101678.00
2022-09-03T13:04:40.291Z,101688.00
2022-09-03T13:07:22.141Z,101680.00
2022-09-03T13:09:49.907Z,101646.00
2022-09-03T13:13:07.844Z,101656.00
2022-09-03T13:15:35.580Z,101652.00
2022-09-03T13:18:11.955Z,101652.00
2022-09-03T13:21:07.897Z,101675.00
2022-09-03T13:23:37.788Z,101648.00
2022-09-03T13:26:41.902Z,101646.00
2022-09-03T13:30:08.007Z,101657.00
2022-09-03T13:33:08.108Z,101640.00
2022-09-03T13:36:02.350Z,101639.00
2022-09-03T13:38:44.083Z,101652.00
2022-09-03T13:41:25.654Z,101653.00
2022-09-03T13:44:13.611Z,101643.00
2022-09-03T13:46:55.520Z,101638.00
2022-09-03T13:50:08.396Z,101645.00
2022-09-03T13:52:47.207Z,101614.00
2022-09-03T13:55:40.628Z,101632.00
2022-09-03T13:58:36.199Z,101649.00
2022-09-03T14:01:19.700Z,101637.00
2022-09-03T14:03:49.701Z,101657.00
2022-09-03T14:06:47.074Z,101638.00
2022-09-03T14:09:54.421Z,101649.00
2022-09-03T14:12:44.333Z,101638.00
2022-09-03T14:15:38.265Z,101626.00
2022-09-03T14:18:43.085Z,101629.00
2022-09-03T14:21:20.763Z,101605.00
2022-09-03T14:24:24.221Z,101602.00
2022-09-03T14:27:02.581Z,101651.00
2022-09-03T14:29:34.040Z,101629.00
2022-09-03T14:32:24.212Z,101653.00
2022-09-03T14:35:07.787Z,101638.00
2022-09-03T14:38:03.039Z,101646.00
2022-09-03T14:40:54.205Z,101649.00
2022-09-03T14:43:42.913Z,101628.00
2022-09-03T14:46:33.898Z,101630.00
2022-09-03T14:49:14.516Z,101613.00
2022-09-03T14:51:57.650Z,101633.00
2022-09-03T14:54:39.718Z,101632.00
2022-09-03T14:57:09.596Z,101632.00
2022-09-03T14:59:39.440Z,101606.00
2022-09-03T15:02:21.375Z,101639.00
2022-09-03T15:05:12.230Z,101619.00
2022-09-03T15:07:52.848Z,101617.00
2022-09-03T15:10:43.994Z,101623.00
2022-09-03T15:13:12.411Z,101628.00
2022-09-03T15:15:42.493Z,101629.00
2022-09-03T15:18:33.330Z,101603.00
2022-09-03T15:21:31.480Z,101613.00
2022-09-03T15:24:42.972Z,101593.00
2022-09-03T15:27:19.339Z,101601.00
2022-09-03T15:29:58.535Z,101612.00
2022-09-03T15:32:49.003Z,101585.00
2022-09-03T15:35:46.159Z,101567.00
2022-09-03T15:38:40.089Z,101608.00
2022-09-03T15:41:29.973Z,101609.00
2022-09-03T15:44:01.410Z,101614.00
2022-09-03T15:46:50.220Z,101615.00
2022-09-03T15:49:59.285Z,101599.00
2022-09-03T15:52:31.771Z,101596.00
2022-09-03T15:55:10.007Z,101585.00
2022-09-03T15:58:19.359Z,101585.00
2022-09-03T16:00:53.130Z,101573.00
2022-09-03T16:03:56.081Z,101560.00
2022-09-03T16:06:49.577Z,101563.00
2022-09-03T16:09:34.963Z,101571.00
2022-09-03T16:12:28.088Z,101573.00
2022-09-03T16:15:15.501Z,101571.00
2022-09-03T16:18:06.932Z,101571.00
2022-09-03T16:20:38.831Z,101558.00
2022-09-03T16:23:23.902Z,101587.00
2022-09-03T16:26:03.899Z,101582.00
2022-09-03T16:28:42.881Z,101566.00
2022-09-03T16:31:39.981Z,101553.00
2022-09-03T16:34:23.120Z,101562.00
2022-09-03T16:37:32.425Z,101547.00
2022-09-03T16:40:08.454Z,101556.00
2022-09-03T16:43:39.470Z,101543.00
2022-09-03T16:46:17.122Z,101541.00
2022-09-03T16:48:50.070Z,101534.00
2022-09-03T16:51:23.826Z,101534.00
2022-09-03T16:54:05.848Z,101521.00
2022-09-03T16:56:53.478Z,101520.00
2022-09-03T16:59:41.106Z,101524.00
2022-09-03T17:02:46.395Z,101528.00
2022-09-03T17:05:31.217Z,101527.00
2022-09-03T17:08:08.007Z,101522.00
2022-09-03T17:10:52.129Z,101516.00
2022-09-03T17:13:40.887Z,101506.00
2022-09-03T17:16:26.564Z,101514.00
2022-09-03T17:19:31.186Z,101510.00
2022-09-03T17:22:24.907Z,101496.00
2022-09-03T17:24:55.087Z,101484.00
2022-09-03T17:27:45.237Z,101491.00
2022-09-03T17:30:23.289Z,101493.00
2022-09-03T17:33:01.537Z,101488.00
2022-09-03T17:35:44.516Z,101492.00
2022-09-03T17:38:11.607Z,101503.00
2022-09-03T17:41:02.799Z,101504.00
2022-09-03T17:44:18.643Z,101514.00
2022-09-03T17:46:55.598Z,101518.00
2022-09-03T17:49:29.391Z,101526.00
2022-09-03T17:52:08.948Z,101528.00
2022-09-03T17:54:45.603Z,101532.00
2022-09-03T17:57:26.757Z,101546.00
2022-09-03T17:59:59.740Z,101549.00
2022-09-03T18:02:51.168Z,101553.00
2022-09-03T18:05:30.352Z,101532.00
2022-09-03T18:08:19.912Z,101519.00
2022-09-03T18:10:55.395Z,101509.00
2022-09-03T18:13:34.791Z,101513.00
2022-09-03T18:16:17.110Z,101502.00
2022-09-03T18:18:47.860Z,101504.00
2022-09-03T18:21:39.590Z,101509.00
2022-09-03T18:24:42.036Z,101510.00
2022-09-03T18:28:03.151Z,101522.00
2022-09-03T18:30:48.889Z,101523.00
2022-09-03T18:33:43.248Z,101527.00
2022-09-03T18:36:30.147Z,101525.00
2022-09-03T18:39:35.975Z,101536.00
2022-09-03T18:42:37.879Z,101537.00
2022-09-03T18:46:05.499Z,101540.00
2022-09-03T18:48:59.628Z,101532.00
2022-09-03T18:52:02.786Z,101534.00
2022-09-03T18:55:18.108Z,101543.00
2022-09-03T18:58:31.902Z,101538.00
2022-09-03T19:01:40.333Z,101550.00
2022-09-03T19:04:30.116Z,101547.00
2022-09-03T19:07:19.570Z,101555.00
2022-09-03T19:10:39.461Z,101557.00
2022-09-03T19:13:24.899Z,101567.00
2022-09-03T19:16:21.126Z,101562.00
2022-09-03T19:19:39.180Z,101570.00
2022-09-03T19:22:29.537Z,101568.00
2022-09-03T19:25:31.327Z,101577.00
2022-09-03T19:31:35.500Z,101581.00
2022-09-03T19:34:52.972Z,101573.00
2022-09-03T19:37:53.538Z,101578.00
2022-09-03T19:40:50.934Z,101581.00
2022-09-03T19:43:45.031Z,101586.00
2022-09-03T19:47:00.725Z,101588.00
2022-09-03T19:50:07.862Z,101589.00
2022-09-03T19:53:01.995Z,101589.00
2022-09-03T19:56:06.648Z,101588.00
2022-09-03T19:58:55.107Z,101587.00
2022-09-03T20:01:58.093Z,101581.00
2022-09-03T20:05:03.932Z,101576.00
2022-09-03T20:07:51.150Z,101581.00
2022-09-03T20:10:24.924Z,101566.00
2022-09-03T20:12:59.174Z,101581.00
2022-09-03T20:15:30.386Z,101581.00
2022-09-03T20:18:04.333Z,101576.00
2022-09-03T20:21:01.798Z,101579.00
2022-09-03T20:23:43.826Z,101583.00
2022-09-03T20:26:19.780Z,101582.00
2022-09-03T20:28:56.383Z,101583.00
2022-09-03T20:31:31.646Z,101570.00
2022-09-03T20:34:20.487Z,101578.00
2022-09-03T20:37:15.530Z,101569.00
2022-09-03T20:39:48.586Z,101575.00
2022-09-03T20:42:38.736Z,101564.00
2022-09-03T20:45:17.596Z,101566.00
2022-09-03T20:48:13.494Z,101573.00
2022-09-03T20:50:49.466Z,101573.00
2022-09-03T20:53:48.958Z,101579.00
2022-09-03T20:56:23.239Z,101574.00
2022-09-03T20:59:34.611Z,101576.00
2022-09-03T21:02:26.010Z,101576.00
2022-09-03T21:05:07.250Z,101581.00
2022-09-03T21:08:06.975Z,101571.00
2022-09-03T21:10:44.251Z,101573.00
2022-09-03T21:13:28.225Z,101578.00
2022-09-03T21:16:04.167Z,101580.00
2022-09-03T21:18:59.005Z,101579.00
2022-09-03T21:21:36.184Z,101576.00
2022-09-03T21:24:20.468Z,101577.00
2022-09-03T21:26:57.062Z,101575.00
2022-09-03T21:29:29.070Z,101578.00
2022-09-03T21:32:18.781Z,101578.00
2022-09-03T21:35:08.152Z,101588.00
2022-09-03T21:37:37.639Z,101594.00
2022-09-03T21:40:07.997Z,101586.00
2022-09-03T21:42:46.249Z,101594.00
2022-09-03T21:45:33.957Z,101587.00
2022-09-03T21:48:09.771Z,101589.00
2022-09-03T21:51:00.878Z,101584.00
2022-09-03T21:54:06.454Z,101595.00
2022-09-03T21:57:12.260Z,101592.00
2022-09-03T22:00:04.729Z,101587.00
2022-09-03T22:02:33.125Z,101584.00
2022-09-03T22:05:01.211Z,101582.00
2022-09-03T22:08:05.803Z,101580.00
2022-09-03T22:10:38.230Z,101584.00
2022-09-03T22:13:35.674Z,101587.00
2022-09-03T22:16:23.291Z,101593.00
2022-09-03T22:18:50.411Z,101598.00
2022-09-03T22:21:37.593Z,101582.00
2022-09-03T22:24:43.075Z,101586.00
2022-09-03T22:27:40.728Z,101586.00
2022-09-03T22:30:20.105Z,101581.00
2022-09-03T22:33:18.766Z,101590.00
2022-09-03T22:36:17.747Z,101574.00
2022-09-03T22:39:11.800Z,101584.00
2022-09-03T22:42:10.206Z,101573.00
2022-09-03T22:45:40.351Z,101570.00
2022-09-03T22:48:09.809Z,101582.00
2022-09-03T22:50:54.710Z,101582.00
2022-09-03T22:53:40.078Z,101574.00
2022-09-03T22:56:18.825Z,101582.00
2022-09-03T22:59:05.701Z,101578.00
2022-09-03T23:01:45.809Z,101580.00
2022-09-03T23:04:35.747Z,101577.00
2022-09-03T23:07:27.267Z,101575.00
2022-09-03T23:10:01.964Z,101582.00
2022-09-03T23:13:00.166Z,101580.00
2022-09-03T23:15:30.531Z,101580.00
2022-09-03T23:18:08.908Z,101569.00
2022-09-03T23:20:40.475Z,101569.00
2022-09-03T23:23:22.420Z,101589.00
2022-09-03T23:26:08.243Z,101588.00
2022-09-03T23:28:36.767Z,101593.00
2022-09-03T23:31:29.853Z,101586.00
2022-09-03T23:33:57.240Z,101575.00
2022-09-03T23:37:10.237Z,101581.00
2022-09-03T23:39:41.447Z,101585.00
2022-09-03T23:42:30.860Z,101589.00
2022-09-03T23:45:15.409Z,101589.00
2022-09-03T23:48:01.609Z,101581.00
2022-09-03T23:50:53.144Z,101589.00
2022-09-03T23:53:37.350Z,101588.00
2022-09-03T23:56:22.113Z,101586.00
2022-09-03T23:58:55.647Z,101578.00
